sensor_id;sensor_type;location;lat;lon;timestamp;P1;durP1;ratioP1;P2;durP2;ratioP2
46355;SDS011;32066;49.474;11.106;2022-07-12T00:00:20;3.15;;;1.17;;
46355;SDS011;32066;49.474;11.106;2022-07-12T00:02:48;3.88;;;1.00;;
46355;SDS011;32066;49.474;11.106;2022-07-12T00:05:15;3.70;;;1.27;;
46355;SDS011;32066;49.474;11.106;2022-07-12T00:07:42;4.20;;;1.20;;
46355;SDS011;32066;49.474;11.106;2022-07-12T00:10:09;3.10;;;1.10;;
46355;SDS011;32066;49.474;11.106;2022-07-12T00:12:35;2.60;;;1.00;;
46355;SDS011;32066;49.474;11.106;2022-07-12T00:15:03;3.22;;;0.88;;
46355;SDS011;32066;49.474;11.106;2022-07-12T00:17:31;3.53;;;1.20;;
46355;SDS011;32066;49.474;11.106;2022-07-12T00:19:59;3.13;;;1.10;;
46355;SDS011;32066;49.474;11.106;2022-07-12T00:22:26;2.70;;;0.93;;
46355;SDS011;32066;49.474;11.106;2022-07-12T00:24:54;3.53;;;1.35;;
46355;SDS011;32066;49.474;11.106;2022-07-12T00:27:21;2.60;;;1.20;;
46355;SDS011;32066;49.474;11.106;2022-07-12T00:29:48;2.90;;;1.30;;
46355;SDS011;32066;49.474;11.106;2022-07-12T00:32:15;3.45;;;1.10;;
46355;SDS011;32066;49.474;11.106;2022-07-12T00:34:41;2.63;;;1.10;;
46355;SDS011;32066;49.474;11.106;2022-07-12T00:37:10;3.30;;;1.20;;
46355;SDS011;32066;49.474;11.106;2022-07-12T00:39:36;3.13;;;1.15;;
46355;SDS011;32066;49.474;11.106;2022-07-12T00:42:04;2.95;;;1.17;;
46355;SDS011;32066;49.474;11.106;2022-07-12T00:44:31;3.13;;;1.20;;
46355;SDS011;32066;49.474;11.106;2022-07-12T00:46:58;3.13;;;1.13;;
46355;SDS011;32066;49.474;11.106;2022-07-12T00:49:26;2.85;;;1.20;;
46355;SDS011;32066;49.474;11.106;2022-07-12T00:51:53;3.45;;;1.33;;
46355;SDS011;32066;49.474;11.106;2022-07-12T00:54:21;2.58;;;1.02;;
46355;SDS011;32066;49.474;11.106;2022-07-12T00:56:49;3.08;;;1.20;;
46355;SDS011;32066;49.474;11.106;2022-07-12T00:59:15;3.47;;;1.20;;
46355;SDS011;32066;49.474;11.106;2022-07-12T01:01:42;3.28;;;1.33;;
46355;SDS011;32066;49.474;11.106;2022-07-12T01:04:09;2.70;;;1.20;;
46355;SDS011;32066;49.474;11.106;2022-07-12T01:06:36;2.90;;;1.10;;
46355;SDS011;32066;49.474;11.106;2022-07-12T01:09:03;4.22;;;1.58;;
46355;SDS011;32066;49.474;11.106;2022-07-12T01:11:31;3.67;;;1.20;;
46355;SDS011;32066;49.474;11.106;2022-07-12T01:13:59;3.08;;;1.23;;
46355;SDS011;32066;49.474;11.106;2022-07-12T01:16:26;3.20;;;1.20;;
46355;SDS011;32066;49.474;11.106;2022-07-12T01:18:53;3.20;;;1.17;;
46355;SDS011;32066;49.474;11.106;2022-07-12T01:21:21;3.53;;;1.35;;
46355;SDS011;32066;49.474;11.106;2022-07-12T01:23:50;4.78;;;0.90;;
46355;SDS011;32066;49.474;11.106;2022-07-12T01:26:18;3.42;;;1.30;;
46355;SDS011;32066;49.474;11.106;2022-07-12T01:28:45;2.88;;;1.10;;
46355;SDS011;32066;49.474;11.106;2022-07-12T01:31:13;3.13;;;1.05;;
46355;SDS011;32066;49.474;11.106;2022-07-12T01:33:39;2.70;;;1.17;;
46355;SDS011;32066;49.474;11.106;2022-07-12T01:36:07;3.13;;;1.20;;
46355;SDS011;32066;49.474;11.106;2022-07-12T01:38:33;3.00;;;1.20;;
46355;SDS011;32066;49.474;11.106;2022-07-12T01:41:02;4.22;;;1.48;;
46355;SDS011;32066;49.474;11.106;2022-07-12T01:43:29;3.30;;;1.30;;
46355;SDS011;32066;49.474;11.106;2022-07-12T01:45:56;3.13;;;1.30;;
46355;SDS011;32066;49.474;11.106;2022-07-12T01:48:23;3.33;;;1.20;;
46355;SDS011;32066;49.474;11.106;2022-07-12T01:50:50;3.50;;;1.40;;
46355;SDS011;32066;49.474;11.106;2022-07-12T01:53:16;3.33;;;1.25;;
46355;SDS011;32066;49.474;11.106;2022-07-12T01:55:44;3.22;;;1.17;;
46355;SDS011;32066;49.474;11.106;2022-07-12T01:58:12;3.38;;;1.20;;
46355;SDS011;32066;49.474;11.106;2022-07-12T02:00:40;3.63;;;1.30;;
46355;SDS011;32066;49.474;11.106;2022-07-12T02:03:07;3.25;;;1.50;;
46355;SDS011;32066;49.474;11.106;2022-07-12T02:05:34;3.80;;;1.55;;
46355;SDS011;32066;49.474;11.106;2022-07-12T02:08:01;3.95;;;1.60;;
46355;SDS011;32066;49.474;11.106;2022-07-12T02:10:28;3.05;;;1.55;;
46355;SDS011;32066;49.474;11.106;2022-07-12T02:12:55;3.65;;;1.80;;
46355;SDS011;32066;49.474;11.106;2022-07-12T02:15:24;4.28;;;2.10;;
46355;SDS011;32066;49.474;11.106;2022-07-12T02:17:51;3.92;;;1.90;;
46355;SDS011;32066;49.474;11.106;2022-07-12T02:20:17;3.85;;;2.08;;
46355;SDS011;32066;49.474;11.106;2022-07-12T02:22:44;3.72;;;1.90;;
46355;SDS011;32066;49.474;11.106;2022-07-12T02:25:11;3.53;;;2.08;;
46355;SDS011;32066;49.474;11.106;2022-07-12T02:27:39;4.10;;;1.85;;
46355;SDS011;32066;49.474;11.106;2022-07-12T02:30:06;3.55;;;2.15;;
46355;SDS011;32066;49.474;11.106;2022-07-12T02:32:35;3.65;;;1.88;;
46355;SDS011;32066;49.474;11.106;2022-07-12T02:35:02;3.90;;;2.20;;
46355;SDS011;32066;49.474;11.106;2022-07-12T02:37:30;3.67;;;1.85;;
46355;SDS011;32066;49.474;11.106;2022-07-12T02:39:56;4.25;;;2.13;;
46355;SDS011;32066;49.474;11.106;2022-07-12T02:42:37;3.72;;;1.80;;
46355;SDS011;32066;49.474;11.106;2022-07-12T02:45:05;3.35;;;1.73;;
46355;SDS011;32066;49.474;11.106;2022-07-12T02:47:32;4.28;;;1.80;;
46355;SDS011;32066;49.474;11.106;2022-07-12T02:50:02;4.18;;;2.05;;
46355;SDS011;32066;49.474;11.106;2022-07-12T02:52:29;3.58;;;2.08;;
46355;SDS011;32066;49.474;11.106;2022-07-12T02:54:56;4.63;;;1.98;;
46355;SDS011;32066;49.474;11.106;2022-07-12T02:57:23;3.85;;;1.90;;
46355;SDS011;32066;49.474;11.106;2022-07-12T02:59:50;3.70;;;1.95;;
46355;SDS011;32066;49.474;11.106;2022-07-12T03:02:16;3.75;;;1.80;;
46355;SDS011;32066;49.474;11.106;2022-07-12T03:04:44;3.83;;;1.80;;
46355;SDS011;32066;49.474;11.106;2022-07-12T03:07:11;4.93;;;1.67;;
46355;SDS011;32066;49.474;11.106;2022-07-12T03:09:38;3.47;;;1.58;;
46355;SDS011;32066;49.474;11.106;2022-07-12T03:12:05;3.50;;;2.00;;
46355;SDS011;32066;49.474;11.106;2022-07-12T03:14:32;3.35;;;1.60;;
46355;SDS011;32066;49.474;11.106;2022-07-12T03:16:59;4.47;;;1.88;;
46355;SDS011;32066;49.474;11.106;2022-07-12T03:19:26;4.20;;;1.77;;
46355;SDS011;32066;49.474;11.106;2022-07-12T03:21:55;4.35;;;2.00;;
46355;SDS011;32066;49.474;11.106;2022-07-12T03:24:21;5.78;;;1.85;;
46355;SDS011;32066;49.474;11.106;2022-07-12T03:26:49;3.97;;;2.00;;
46355;SDS011;32066;49.474;11.106;2022-07-12T03:29:16;4.55;;;1.58;;
46355;SDS011;32066;49.474;11.106;2022-07-12T03:31:43;3.75;;;1.70;;
46355;SDS011;32066;49.474;11.106;2022-07-12T03:34:10;3.50;;;1.80;;
46355;SDS011;32066;49.474;11.106;2022-07-12T03:36:37;4.13;;;1.67;;
46355;SDS011;32066;49.474;11.106;2022-07-12T03:39:05;3.35;;;1.80;;
46355;SDS011;32066;49.474;11.106;2022-07-12T03:41:32;4.78;;;1.70;;
46355;SDS011;32066;49.474;11.106;2022-07-12T03:43:59;3.60;;;1.80;;
46355;SDS011;32066;49.474;11.106;2022-07-12T03:46:26;4.75;;;2.00;;
46355;SDS011;32066;49.474;11.106;2022-07-12T03:48:52;7.40;;;1.80;;
46355;SDS011;32066;49.474;11.106;2022-07-12T03:51:19;3.42;;;1.65;;
46355;SDS011;32066;49.474;11.106;2022-07-12T03:53:46;4.03;;;1.75;;
46355;SDS011;32066;49.474;11.106;2022-07-12T03:56:14;3.45;;;2.00;;
46355;SDS011;32066;49.474;11.106;2022-07-12T03:59:01;3.83;;;1.98;;
46355;SDS011;32066;49.474;11.106;2022-07-12T04:01:29;3.90;;;1.90;;
46355;SDS011;32066;49.474;11.106;2022-07-12T04:03:56;4.03;;;1.70;;
46355;SDS011;32066;49.474;11.106;2022-07-12T04:06:23;4.70;;;1.80;;
46355;SDS011;32066;49.474;11.106;2022-07-12T04:08:49;3.53;;;1.77;;
46355;SDS011;32066;49.474;11.106;2022-07-12T04:11:18;4.63;;;1.70;;
46355;SDS011;32066;49.474;11.106;2022-07-12T04:13:45;8.35;;;3.13;;
46355;SDS011;32066;49.474;11.106;2022-07-12T04:16:11;3.28;;;1.77;;
46355;SDS011;32066;49.474;11.106;2022-07-12T04:18:38;3.60;;;1.90;;
46355;SDS011;32066;49.474;11.106;2022-07-12T04:21:05;3.47;;;1.50;;
46355;SDS011;32066;49.474;11.106;2022-07-12T04:23:32;4.20;;;2.08;;
46355;SDS011;32066;49.474;11.106;2022-07-12T04:25:59;3.70;;;2.00;;
46355;SDS011;32066;49.474;11.106;2022-07-12T04:28:27;4.88;;;2.00;;
46355;SDS011;32066;49.474;11.106;2022-07-12T04:30:54;4.65;;;1.90;;
46355;SDS011;32066;49.474;11.106;2022-07-12T04:33:21;5.57;;;2.00;;
46355;SDS011;32066;49.474;11.106;2022-07-12T04:35:48;4.78;;;2.30;;
46355;SDS011;32066;49.474;11.106;2022-07-12T04:38:15;5.00;;;2.47;;
46355;SDS011;32066;49.474;11.106;2022-07-12T04:40:42;3.90;;;1.83;;
46355;SDS011;32066;49.474;11.106;2022-07-12T04:43:09;5.28;;;2.10;;
46355;SDS011;32066;49.474;11.106;2022-07-12T04:45:37;4.47;;;2.15;;
46355;SDS011;32066;49.474;11.106;2022-07-12T04:48:04;4.00;;;1.90;;
46355;SDS011;32066;49.474;11.106;2022-07-12T04:50:31;4.25;;;2.03;;
46355;SDS011;32066;49.474;11.106;2022-07-12T04:52:58;3.83;;;2.00;;
46355;SDS011;32066;49.474;11.106;2022-07-12T04:55:25;4.07;;;2.10;;
46355;SDS011;32066;49.474;11.106;2022-07-12T04:57:52;4.20;;;1.95;;
46355;SDS011;32066;49.474;11.106;2022-07-12T05:00:19;4.15;;;2.30;;
46355;SDS011;32066;49.474;11.106;2022-07-12T05:02:47;4.88;;;2.15;;
46355;SDS011;32066;49.474;11.106;2022-07-12T05:05:14;5.28;;;2.20;;
46355;SDS011;32066;49.474;11.106;2022-07-12T05:07:41;5.45;;;2.42;;
46355;SDS011;32066;49.474;11.106;2022-07-12T05:10:08;4.30;;;2.13;;
46355;SDS011;32066;49.474;11.106;2022-07-12T05:12:35;3.88;;;1.90;;
46355;SDS011;32066;49.474;11.106;2022-07-12T05:15:02;4.07;;;2.17;;
46355;SDS011;32066;49.474;11.106;2022-07-12T05:17:29;4.00;;;2.10;;
46355;SDS011;32066;49.474;11.106;2022-07-12T05:19:57;4.95;;;2.47;;
46355;SDS011;32066;49.474;11.106;2022-07-12T05:22:24;3.92;;;1.98;;
46355;SDS011;32066;49.474;11.106;2022-07-12T05:24:51;3.97;;;2.00;;
46355;SDS011;32066;49.474;11.106;2022-07-12T05:27:18;3.78;;;2.00;;
46355;SDS011;32066;49.474;11.106;2022-07-12T05:29:45;5.22;;;1.70;;
46355;SDS011;32066;49.474;11.106;2022-07-12T05:32:12;4.72;;;1.70;;
46355;SDS011;32066;49.474;11.106;2022-07-12T05:34:39;3.53;;;2.00;;
46355;SDS011;32066;49.474;11.106;2022-07-12T05:37:07;4.30;;;1.80;;
46355;SDS011;32066;49.474;11.106;2022-07-12T05:39:34;3.20;;;1.75;;
46355;SDS011;32066;49.474;11.106;2022-07-12T05:42:01;3.85;;;1.70;;
46355;SDS011;32066;49.474;11.106;2022-07-12T05:44:28;5.57;;;1.90;;
46355;SDS011;32066;49.474;11.106;2022-07-12T05:46:55;3.85;;;1.70;;
46355;SDS011;32066;49.474;11.106;2022-07-12T05:49:22;4.70;;;1.70;;
46355;SDS011;32066;49.474;11.106;2022-07-12T05:51:49;3.80;;;2.03;;
46355;SDS011;32066;49.474;11.106;2022-07-12T05:54:35;3.65;;;1.73;;
46355;SDS011;32066;49.474;11.106;2022-07-12T05:57:02;4.97;;;1.80;;
46355;SDS011;32066;49.474;11.106;2022-07-12T05:59:29;3.85;;;1.80;;
46355;SDS011;32066;49.474;11.106;2022-07-12T06:01:56;4.03;;;1.70;;
46355;SDS011;32066;49.474;11.106;2022-07-12T06:04:23;4.25;;;2.40;;
46355;SDS011;32066;49.474;11.106;2022-07-12T06:06:50;5.68;;;3.03;;
46355;SDS011;32066;49.474;11.106;2022-07-12T06:09:17;4.57;;;2.00;;
46355;SDS011;32066;49.474;11.106;2022-07-12T06:11:45;3.97;;;1.90;;
46355;SDS011;32066;49.474;11.106;2022-07-12T06:14:12;3.25;;;1.60;;
46355;SDS011;32066;49.474;11.106;2022-07-12T06:16:39;3.58;;;1.40;;
46355;SDS011;32066;49.474;11.106;2022-07-12T06:19:05;3.20;;;1.40;;
46355;SDS011;32066;49.474;11.106;2022-07-12T06:21:32;4.22;;;1.50;;
46355;SDS011;32066;49.474;11.106;2022-07-12T06:24:00;4.30;;;1.40;;
46355;SDS011;32066;49.474;11.106;2022-07-12T06:26:26;3.17;;;1.40;;
46355;SDS011;32066;49.474;11.106;2022-07-12T06:28:55;3.10;;;1.30;;
46355;SDS011;32066;49.474;11.106;2022-07-12T06:31:22;3.70;;;1.33;;
46355;SDS011;32066;49.474;11.106;2022-07-12T06:33:50;3.20;;;1.50;;
46355;SDS011;32066;49.474;11.106;2022-07-12T06:36:17;4.40;;;1.67;;
46355;SDS011;32066;49.474;11.106;2022-07-12T06:38:44;3.78;;;1.55;;
46355;SDS011;32066;49.474;11.106;2022-07-12T06:41:11;4.10;;;1.30;;
46355;SDS011;32066;49.474;11.106;2022-07-12T06:43:38;2.70;;;1.20;;
46355;SDS011;32066;49.474;11.106;2022-07-12T06:46:06;3.72;;;1.40;;
46355;SDS011;32066;49.474;11.106;2022-07-12T06:48:33;3.88;;;1.33;;
46355;SDS011;32066;49.474;11.106;2022-07-12T06:51:01;4.10;;;1.48;;
46355;SDS011;32066;49.474;11.106;2022-07-12T06:53:28;3.55;;;1.48;;
46355;SDS011;32066;49.474;11.106;2022-07-12T06:55:55;3.53;;;1.60;;
46355;SDS011;32066;49.474;11.106;2022-07-12T06:58:22;3.75;;;1.40;;
46355;SDS011;32066;49.474;11.106;2022-07-12T07:00:49;4.32;;;1.60;;
46355;SDS011;32066;49.474;11.106;2022-07-12T07:03:17;3.83;;;1.40;;
46355;SDS011;32066;49.474;11.106;2022-07-12T07:05:44;4.68;;;1.20;;
46355;SDS011;32066;49.474;11.106;2022-07-12T07:08:11;3.28;;;1.65;;
46355;SDS011;32066;49.474;11.106;2022-07-12T07:10:38;2.80;;;1.30;;
46355;SDS011;32066;49.474;11.106;2022-07-12T07:13:05;4.30;;;1.30;;
46355;SDS011;32066;49.474;11.106;2022-07-12T07:15:35;2.95;;;1.20;;
46355;SDS011;32066;49.474;11.106;2022-07-12T07:18:04;2.55;;;1.15;;
46355;SDS011;32066;49.474;11.106;2022-07-12T07:20:33;3.17;;;1.30;;
46355;SDS011;32066;49.474;11.106;2022-07-12T07:23:00;3.05;;;1.13;;
46355;SDS011;32066;49.474;11.106;2022-07-12T07:25:27;4.35;;;1.30;;
46355;SDS011;32066;49.474;11.106;2022-07-12T07:27:54;3.75;;;1.60;;
46355;SDS011;32066;49.474;11.106;2022-07-12T07:30:21;3.25;;;1.52;;
46355;SDS011;32066;49.474;11.106;2022-07-12T07:33:05;5.80;;;1.67;;
46355;SDS011;32066;49.474;11.106;2022-07-12T07:35:33;4.28;;;1.45;;
46355;SDS011;32066;49.474;11.106;2022-07-12T07:38:00;4.68;;;1.30;;
46355;SDS011;32066;49.474;11.106;2022-07-12T07:40:27;6.53;;;1.55;;
46355;SDS011;32066;49.474;11.106;2022-07-12T07:42:54;5.15;;;1.90;;
46355;SDS011;32066;49.474;11.106;2022-07-12T07:45:21;3.67;;;1.50;;
46355;SDS011;32066;49.474;11.106;2022-07-12T07:47:48;3.42;;;1.48;;
46355;SDS011;32066;49.474;11.106;2022-07-12T07:50:16;3.58;;;1.13;;
46355;SDS011;32066;49.474;11.106;2022-07-12T07:52:44;3.22;;;1.60;;
46355;SDS011;32066;49.474;11.106;2022-07-12T07:55:14;3.50;;;1.30;;
46355;SDS011;32066;49.474;11.106;2022-07-12T07:57:41;3.30;;;1.48;;
46355;SDS011;32066;49.474;11.106;2022-07-12T08:00:08;6.05;;;1.35;;
46355;SDS011;32066;49.474;11.106;2022-07-12T08:02:39;3.85;;;1.10;;
46355;SDS011;32066;49.474;11.106;2022-07-12T08:05:06;3.90;;;1.45;;
46355;SDS011;32066;49.474;11.106;2022-07-12T08:07:33;3.95;;;1.20;;
46355;SDS011;32066;49.474;11.106;2022-07-12T08:10:01;2.90;;;1.15;;
46355;SDS011;32066;49.474;11.106;2022-07-12T08:12:29;2.80;;;1.00;;
46355;SDS011;32066;49.474;11.106;2022-07-12T08:14:57;9.43;;;1.30;;
46355;SDS011;32066;49.474;11.106;2022-07-12T08:17:24;3.00;;;1.10;;
46355;SDS011;32066;49.474;11.106;2022-07-12T08:19:51;3.25;;;1.35;;
46355;SDS011;32066;49.474;11.106;2022-07-12T08:22:18;3.10;;;1.02;;
46355;SDS011;32066;49.474;11.106;2022-07-12T08:24:45;3.05;;;1.10;;
46355;SDS011;32066;49.474;11.106;2022-07-12T08:27:13;3.83;;;1.50;;
46355;SDS011;32066;49.474;11.106;2022-07-12T08:29:40;3.05;;;1.10;;
46355;SDS011;32066;49.474;11.106;2022-07-12T08:32:07;3.85;;;1.15;;
46355;SDS011;32066;49.474;11.106;2022-07-12T08:34:34;2.40;;;0.90;;
46355;SDS011;32066;49.474;11.106;2022-07-12T08:37:01;2.65;;;1.00;;
46355;SDS011;32066;49.474;11.106;2022-07-12T08:39:29;4.00;;;1.20;;
46355;SDS011;32066;49.474;11.106;2022-07-12T08:41:56;3.80;;;1.00;;
46355;SDS011;32066;49.474;11.106;2022-07-12T08:44:24;3.47;;;1.10;;
46355;SDS011;32066;49.474;11.106;2022-07-12T08:46:51;3.88;;;0.93;;
46355;SDS011;32066;49.474;11.106;2022-07-12T08:49:18;7.40;;;1.35;;
46355;SDS011;32066;49.474;11.106;2022-07-12T08:51:45;2.85;;;1.08;;
46355;SDS011;32066;49.474;11.106;2022-07-12T08:54:13;3.55;;;1.00;;
46355;SDS011;32066;49.474;11.106;2022-07-12T08:56:42;2.45;;;0.80;;
46355;SDS011;32066;49.474;11.106;2022-07-12T08:59:13;2.70;;;1.00;;
46355;SDS011;32066;49.474;11.106;2022-07-12T09:01:43;2.22;;;0.80;;
46355;SDS011;32066;49.474;11.106;2022-07-12T09:04:13;4.35;;;0.90;;
46355;SDS011;32066;49.474;11.106;2022-07-12T09:06:40;2.78;;;0.80;;
46355;SDS011;32066;49.474;11.106;2022-07-12T09:09:07;2.67;;;0.90;;
46355;SDS011;32066;49.474;11.106;2022-07-12T09:11:36;2.75;;;1.05;;
46355;SDS011;32066;49.474;11.106;2022-07-12T09:14:03;3.65;;;1.00;;
46355;SDS011;32066;49.474;11.106;2022-07-12T09:16:31;2.80;;;0.90;;
46355;SDS011;32066;49.474;11.106;2022-07-12T09:19:12;2.50;;;0.77;;
46355;SDS011;32066;49.474;11.106;2022-07-12T09:21:48;2.80;;;0.90;;
46355;SDS011;32066;49.474;11.106;2022-07-12T09:24:16;1.95;;;0.60;;
46355;SDS011;32066;49.474;11.106;2022-07-12T09:26:44;6.25;;;1.10;;
46355;SDS011;32066;49.474;11.106;2022-07-12T09:29:12;3.25;;;1.33;;
46355;SDS011;32066;49.474;11.106;2022-07-12T09:31:40;2.83;;;1.13;;
46355;SDS011;32066;49.474;11.106;2022-07-12T09:34:29;2.88;;;1.00;;
46355;SDS011;32066;49.474;11.106;2022-07-12T09:37:14;3.65;;;1.10;;
46355;SDS011;32066;49.474;11.106;2022-07-12T09:39:41;2.10;;;0.80;;
46355;SDS011;32066;49.474;11.106;2022-07-12T09:42:08;2.42;;;1.05;;
46355;SDS011;32066;49.474;11.106;2022-07-12T09:44:36;3.20;;;0.90;;
46355;SDS011;32066;49.474;11.106;2022-07-12T09:47:04;2.83;;;0.80;;
46355;SDS011;32066;49.474;11.106;2022-07-12T09:49:34;2.40;;;0.80;;
46355;SDS011;32066;49.474;11.106;2022-07-12T09:52:02;2.58;;;0.80;;
46355;SDS011;32066;49.474;11.106;2022-07-12T09:54:31;2.97;;;0.90;;
46355;SDS011;32066;49.474;11.106;2022-07-12T09:57:05;2.50;;;0.80;;
46355;SDS011;32066;49.474;11.106;2022-07-12T09:59:43;3.38;;;1.08;;
46355;SDS011;32066;49.474;11.106;2022-07-12T10:02:10;2.63;;;0.90;;
46355;SDS011;32066;49.474;11.106;2022-07-12T10:04:41;2.72;;;0.88;;
46355;SDS011;32066;49.474;11.106;2022-07-12T10:07:09;2.10;;;0.70;;
46355;SDS011;32066;49.474;11.106;2022-07-12T10:09:39;2.90;;;0.82;;
46355;SDS011;32066;49.474;11.106;2022-07-12T10:12:08;4.15;;;0.85;;
46355;SDS011;32066;49.474;11.106;2022-07-12T10:14:36;2.40;;;0.88;;
46355;SDS011;32066;49.474;11.106;2022-07-12T10:17:04;2.45;;;0.80;;
46355;SDS011;32066;49.474;11.106;2022-07-12T10:19:34;2.50;;;0.82;;
46355;SDS011;32066;49.474;11.106;2022-07-12T10:22:04;3.08;;;1.00;;
46355;SDS011;32066;49.474;11.106;2022-07-12T10:24:44;2.50;;;0.90;;
46355;SDS011;32066;49.474;11.106;2022-07-12T10:27:27;2.58;;;0.80;;
46355;SDS011;32066;49.474;11.106;2022-07-12T10:30:14;2.30;;;0.80;;
46355;SDS011;32066;49.474;11.106;2022-07-12T10:32:43;2.90;;;1.00;;
46355;SDS011;32066;49.474;11.106;2022-07-12T10:35:11;2.60;;;0.80;;
46355;SDS011;32066;49.474;11.106;2022-07-12T10:37:41;2.35;;;0.70;;
46355;SDS011;32066;49.474;11.106;2022-07-12T10:40:28;5.72;;;0.90;;
46355;SDS011;32066;49.474;11.106;2022-07-12T10:43:13;6.53;;;0.88;;
46355;SDS011;32066;49.474;11.106;2022-07-12T10:45:46;3.58;;;0.80;;
46355;SDS011;32066;49.474;11.106;2022-07-12T10:48:21;2.72;;;0.75;;
46355;SDS011;32066;49.474;11.106;2022-07-12T10:50:50;2.30;;;0.70;;
46355;SDS011;32066;49.474;11.106;2022-07-12T10:53:32;2.78;;;0.98;;
46355;SDS011;32066;49.474;11.106;2022-07-12T10:56:06;4.72;;;1.08;;
46355;SDS011;32066;49.474;11.106;2022-07-12T10:58:40;2.20;;;0.70;;
46355;SDS011;32066;49.474;11.106;2022-07-12T11:01:08;2.70;;;0.80;;
46355;SDS011;32066;49.474;11.106;2022-07-12T11:03:37;1.83;;;0.70;;
46355;SDS011;32066;49.474;11.106;2022-07-12T11:06:06;3.03;;;0.73;;
46355;SDS011;32066;49.474;11.106;2022-07-12T11:08:49;2.35;;;0.80;;
46355;SDS011;32066;49.474;11.106;2022-07-12T11:11:20;2.58;;;0.80;;
46355;SDS011;32066;49.474;11.106;2022-07-12T11:13:49;2.53;;;0.85;;
46355;SDS011;32066;49.474;11.106;2022-07-12T11:16:16;2.40;;;0.70;;
46355;SDS011;32066;49.474;11.106;2022-07-12T11:18:43;2.42;;;0.80;;
46355;SDS011;32066;49.474;11.106;2022-07-12T11:21:11;4.35;;;0.75;;
46355;SDS011;32066;49.474;11.106;2022-07-12T11:23:37;2.40;;;0.70;;
46355;SDS011;32066;49.474;11.106;2022-07-12T11:26:07;2.17;;;0.80;;
46355;SDS011;32066;49.474;11.106;2022-07-12T11:28:36;4.60;;;0.90;;
46355;SDS011;32066;49.474;11.106;2022-07-12T11:31:04;2.75;;;0.70;;
46355;SDS011;32066;49.474;11.106;2022-07-12T11:33:33;2.40;;;0.75;;
46355;SDS011;32066;49.474;11.106;2022-07-12T11:36:02;2.10;;;0.75;;
46355;SDS011;32066;49.474;11.106;2022-07-12T11:38:31;3.53;;;0.90;;
46355;SDS011;32066;49.474;11.106;2022-07-12T11:41:00;2.65;;;0.90;;
46355;SDS011;32066;49.474;11.106;2022-07-12T11:43:29;2.40;;;0.80;;
46355;SDS011;32066;49.474;11.106;2022-07-12T11:45:57;3.08;;;0.90;;
46355;SDS011;32066;49.474;11.106;2022-07-12T11:48:24;3.08;;;1.00;;
46355;SDS011;32066;49.474;11.106;2022-07-12T11:50:52;2.75;;;0.93;;
46355;SDS011;32066;49.474;11.106;2022-07-12T11:53:20;2.72;;;0.85;;
46355;SDS011;32066;49.474;11.106;2022-07-12T11:55:49;3.28;;;0.88;;
46355;SDS011;32066;49.474;11.106;2022-07-12T11:58:17;2.33;;;0.80;;
46355;SDS011;32066;49.474;11.106;2022-07-12T12:00:47;2.00;;;0.70;;
46355;SDS011;32066;49.474;11.106;2022-07-12T12:03:15;1.75;;;0.63;;
46355;SDS011;32066;49.474;11.106;2022-07-12T12:05:43;2.20;;;0.70;;
46355;SDS011;32066;49.474;11.106;2022-07-12T12:08:12;2.25;;;0.80;;
46355;SDS011;32066;49.474;11.106;2022-07-12T12:10:40;2.45;;;0.80;;
46355;SDS011;32066;49.474;11.106;2022-07-12T12:13:12;2.88;;;0.70;;
46355;SDS011;32066;49.474;11.106;2022-07-12T12:15:41;2.35;;;0.80;;
46355;SDS011;32066;49.474;11.106;2022-07-12T12:18:15;2.20;;;0.80;;
46355;SDS011;32066;49.474;11.106;2022-07-12T12:20:43;3.65;;;0.90;;
46355;SDS011;32066;49.474;11.106;2022-07-12T12:23:14;3.15;;;1.33;;
46355;SDS011;32066;49.474;11.106;2022-07-12T12:25:42;2.10;;;0.70;;
46355;SDS011;32066;49.474;11.106;2022-07-12T12:28:11;3.20;;;0.85;;
46355;SDS011;32066;49.474;11.106;2022-07-12T12:30:48;2.90;;;0.80;;
46355;SDS011;32066;49.474;11.106;2022-07-12T12:36:15;3.05;;;0.90;;
46355;SDS011;32066;49.474;11.106;2022-07-12T12:38:43;2.03;;;0.70;;
46355;SDS011;32066;49.474;11.106;2022-07-12T12:41:11;5.32;;;1.08;;
46355;SDS011;32066;49.474;11.106;2022-07-12T12:43:38;2.72;;;1.00;;
46355;SDS011;32066;49.474;11.106;2022-07-12T12:46:06;2.90;;;0.70;;
46355;SDS011;32066;49.474;11.106;2022-07-12T12:48:33;1.85;;;0.70;;
46355;SDS011;32066;49.474;11.106;2022-07-12T12:51:02;2.40;;;0.80;;
46355;SDS011;32066;49.474;11.106;2022-07-12T12:53:31;3.65;;;0.93;;
46355;SDS011;32066;49.474;11.106;2022-07-12T12:55:58;2.50;;;0.80;;
46355;SDS011;32066;49.474;11.106;2022-07-12T12:58:25;2.78;;;0.95;;
46355;SDS011;32066;49.474;11.106;2022-07-12T13:00:53;3.10;;;0.77;;
46355;SDS011;32066;49.474;11.106;2022-07-12T13:03:21;3.78;;;0.70;;
46355;SDS011;32066;49.474;11.106;2022-07-12T13:05:51;2.20;;;0.70;;
46355;SDS011;32066;49.474;11.106;2022-07-12T13:08:18;2.33;;;0.77;;
46355;SDS011;32066;49.474;11.106;2022-07-12T13:10:46;2.55;;;0.80;;
46355;SDS011;32066;49.474;11.106;2022-07-12T13:13:33;2.35;;;0.80;;
46355;SDS011;32066;49.474;11.106;2022-07-12T13:16:00;3.20;;;1.25;;
46355;SDS011;32066;49.474;11.106;2022-07-12T13:18:27;2.33;;;0.70;;
46355;SDS011;32066;49.474;11.106;2022-07-12T13:20:56;5.13;;;1.00;;
46355;SDS011;32066;49.474;11.106;2022-07-12T13:23:23;3.13;;;1.00;;
46355;SDS011;32066;49.474;11.106;2022-07-12T13:25:49;4.18;;;1.05;;
46355;SDS011;32066;49.474;11.106;2022-07-12T13:28:17;3.75;;;0.98;;
46355;SDS011;32066;49.474;11.106;2022-07-12T13:30:44;2.55;;;0.90;;
46355;SDS011;32066;49.474;11.106;2022-07-12T13:33:10;2.70;;;0.90;;
46355;SDS011;32066;49.474;11.106;2022-07-12T13:35:37;1.85;;;0.80;;
46355;SDS011;32066;49.474;11.106;2022-07-12T13:38:05;2.78;;;0.80;;
46355;SDS011;32066;49.474;11.106;2022-07-12T13:40:32;2.50;;;0.85;;
46355;SDS011;32066;49.474;11.106;2022-07-12T13:42:59;5.72;;;0.85;;
46355;SDS011;32066;49.474;11.106;2022-07-12T13:45:26;1.92;;;0.80;;
46355;SDS011;32066;49.474;11.106;2022-07-12T13:47:53;4.82;;;0.82;;
46355;SDS011;32066;49.474;11.106;2022-07-12T13:50:21;2.60;;;0.80;;
46355;SDS011;32066;49.474;11.106;2022-07-12T13:52:48;2.45;;;0.85;;
46355;SDS011;32066;49.474;11.106;2022-07-12T13:55:17;3.00;;;0.95;;
46355;SDS011;32066;49.474;11.106;2022-07-12T13:57:46;2.50;;;0.70;;
46355;SDS011;32066;49.474;11.106;2022-07-12T14:00:14;3.65;;;0.80;;
46355;SDS011;32066;49.474;11.106;2022-07-12T14:02:43;1.98;;;0.70;;
46355;SDS011;32066;49.474;11.106;2022-07-12T14:05:12;2.75;;;0.90;;
46355;SDS011;32066;49.474;11.106;2022-07-12T14:07:40;2.17;;;0.70;;
46355;SDS011;32066;49.474;11.106;2022-07-12T14:10:08;2.33;;;0.70;;
46355;SDS011;32066;49.474;11.106;2022-07-12T14:12:37;4.82;;;0.80;;
46355;SDS011;32066;49.474;11.106;2022-07-12T14:15:05;2.70;;;0.70;;
46355;SDS011;32066;49.474;11.106;2022-07-12T14:17:40;2.50;;;0.80;;
46355;SDS011;32066;49.474;11.106;2022-07-12T14:20:08;2.13;;;0.80;;
46355;SDS011;32066;49.474;11.106;2022-07-12T14:22:37;3.45;;;0.90;;
46355;SDS011;32066;49.474;11.106;2022-07-12T14:25:04;2.28;;;0.80;;
46355;SDS011;32066;49.474;11.106;2022-07-12T14:27:33;4.00;;;0.90;;
46355;SDS011;32066;49.474;11.106;2022-07-12T14:30:01;2.03;;;0.70;;
46355;SDS011;32066;49.474;11.106;2022-07-12T14:32:29;2.28;;;0.70;;
46355;SDS011;32066;49.474;11.106;2022-07-12T14:34:55;3.28;;;0.77;;
46355;SDS011;32066;49.474;11.106;2022-07-12T14:37:22;1.80;;;0.60;;
46355;SDS011;32066;49.474;11.106;2022-07-12T14:39:49;3.13;;;0.80;;
46355;SDS011;32066;49.474;11.106;2022-07-12T14:42:16;1.77;;;0.60;;